createdAt,value
2022-09-16T00:02:17.521Z,97674.53
2022-09-16T00:05:20.634Z,97671.56
2022-09-16T00:08:22.872Z,97681.19
2022-09-16T00:11:24.794Z,97678.50
2022-09-16T00:14:26.390Z,97666.72
2022-09-16T00:17:30.058Z,97676.53
2022-09-16T00:20:32.950Z,97673.75
2022-09-16T00:23:34.695Z,97671.94
2022-09-16T00:26:38.562Z,97671.19
2022-09-16T00:29:40.503Z,97670.22
2022-09-16T00:32:41.997Z,97667.47
2022-09-16T00:35:45.148Z,97665.75
2022-09-16T00:38:50.537Z,97660.41
2022-09-16T00:41:52.345Z,97654.31
2022-09-16T00:44:56.252Z,97657.06
2022-09-16T00:47:59.584Z,97658.00
2022-09-16T00:51:04.919Z,97655.34
2022-09-16T00:54:10.006Z,97658.00
2022-09-16T00:57:13.500Z,97657.91
2022-09-16T01:00:15.145Z,97650.75
2022-09-16T01:03:16.827Z,97658.59
2022-09-16T01:06:19.979Z,97646.00
2022-09-16T01:09:23.389Z,97643.41
2022-09-16T01:12:27.873Z,97646.00
2022-09-16T01:15:32.713Z,97659.44
2022-09-16T01:18:39.893Z,97648.97
2022-09-16T01:21:45.411Z,97651.81
2022-09-16T01:24:50.746Z,97644.75
2022-09-16T01:28:09.117Z,97652.88
2022-09-16T01:31:15.783Z,97652.88
2022-09-16T01:34:21.051Z,97655.75
2022-09-16T01:37:29.158Z,97662.59
2022-09-16T01:40:34.210Z,97664.41
2022-09-16T01:43:44.313Z,97666.03
2022-09-16T01:46:48.696Z,97670.50
2022-09-16T01:49:57.974Z,97653.53
2022-09-16T01:53:05.000Z,97661.53
2022-09-16T01:56:09.643Z,97661.53
2022-09-16T01:59:16.653Z,97659.72
2022-09-16T02:02:21.507Z,97660.69
2022-09-16T02:05:24.800Z,97658.88
2022-09-16T02:08:28.833Z,97653.44
2022-09-16T02:11:30.866Z,97654.31
2022-09-16T02:14:33.881Z,97653.25
2022-09-16T02:17:38.881Z,97654.97
2022-09-16T02:20:42.778Z,97645.81
2022-09-16T02:23:46.484Z,97640.00
2022-09-16T02:26:52.020Z,97640.13
2022-09-16T02:29:56.433Z,97640.31
2022-09-16T02:33:00.396Z,97646.81
2022-09-16T02:36:03.421Z,97633.53
2022-09-16T02:39:08.732Z,97638.34
2022-09-16T02:42:10.383Z,97633.84
2022-09-16T02:45:12.607Z,97643.66
2022-09-16T02:48:20.386Z,97644.53
2022-09-16T02:51:28.554Z,97644.53
2022-09-16T02:54:36.462Z,97644.72
2022-09-16T02:57:38.321Z,97653.50
2022-09-16T03:00:41.479Z,97649.88
2022-09-16T03:03:44.465Z,97660.53
2022-09-16T03:06:46.402Z,97651.88
2022-09-16T03:09:49.299Z,97656.38
2022-09-16T03:12:56.551Z,97660.75
2022-09-16T03:16:04.418Z,97659.03
2022-09-16T03:19:12.828Z,97651.28
2022-09-16T03:22:19.245Z,97659.09
2022-09-16T03:25:25.847Z,97648.34
2022-09-16T03:28:32.280Z,97643.94
2022-09-16T03:31:37.057Z,97642.44
2022-09-16T03:34:45.177Z,97644.25
2022-09-16T03:37:49.007Z,97641.88
2022-09-16T03:40:50.993Z,97639.38
2022-09-16T03:43:53.253Z,97634.03
2022-09-16T03:46:54.660Z,97627.00
2022-09-16T03:50:04.707Z,97624.16
2022-09-16T03:53:06.195Z,97623.97
2022-09-16T03:56:07.905Z,97631.09
2022-09-16T03:59:09.621Z,97625.66
2022-09-16T04:02:11.241Z,97630.91
2022-09-16T04:05:14.204Z,97625.56
2022-09-16T04:08:15.670Z,97631.00
2022-09-16T04:11:17.738Z,97632.72
2022-09-16T04:14:20.346Z,97620.88
2022-09-16T04:17:22.124Z,97622.91
2022-09-16T04:20:25.047Z,97622.16
2022-09-16T04:23:27.245Z,97618.22
2022-09-16T04:26:28.685Z,97620.97
2022-09-16T04:29:31.214Z,97613.06
2022-09-16T04:32:32.680Z,97615.84
2022-09-16T04:35:35.543Z,97613.28
2022-09-16T04:38:37.482Z,97616.16
2022-09-16T04:41:39.181Z,97615.09
2022-09-16T04:44:40.674Z,97614.41
2022-09-16T04:47:42.866Z,97610.13
2022-09-16T04:50:45.761Z,97624.53
2022-09-16T04:53:47.333Z,97618.25
2022-09-16T04:56:48.913Z,97612.25
2022-09-16T04:59:50.400Z,97607.19
2022-09-16T05:02:54.508Z,97613.09
2022-09-16T05:06:08.217Z,97611.88
2022-09-16T05:09:13.483Z,97615.41
2022-09-16T05:12:14.908Z,97614.69
2022-09-16T05:15:16.542Z,97614.69
2022-09-16T05:18:18.229Z,97622.78
2022-09-16T05:21:22.163Z,97612.50
2022-09-16T05:24:26.490Z,97622.13
2022-09-16T05:27:32.458Z,97620.88
2022-09-16T05:30:34.009Z,97618.81
2022-09-16T05:33:35.776Z,97623.19
2022-09-16T05:36:39.256Z,97622.78
2022-09-16T05:39:40.912Z,97621.81
2022-09-16T05:42:42.535Z,97628.97
2022-09-16T05:45:44.276Z,97636.13
2022-09-16T05:48:46.965Z,97626.41
2022-09-16T05:51:50.407Z,97634.41
2022-09-16T05:54:51.885Z,97631.53
2022-09-16T05:57:53.346Z,97634.19
2022-09-16T06:00:58.324Z,97635.88
2022-09-16T06:04:00.944Z,97641.88
2022-09-16T06:07:03.859Z,97635.69
2022-09-16T06:10:06.004Z,97634.94
2022-09-16T06:13:07.832Z,97635.78
2022-09-16T06:16:10.499Z,97634.44
2022-09-16T06:19:13.639Z,97632.56
2022-09-16T06:22:16.907Z,97624.34
2022-09-16T06:25:18.930Z,97628.72
2022-09-16T06:28:20.832Z,97624.91
2022-09-16T06:31:23.787Z,97635.56
2022-09-16T06:34:26.880Z,97627.50
2022-09-16T06:37:30.369Z,97632.06
2022-09-16T06:40:31.828Z,97629.22
2022-09-16T06:43:34.248Z,97630.06
2022-09-16T06:46:35.875Z,97628.91
2022-09-16T06:49:37.524Z,97621.88
2022-09-16T06:52:40.547Z,97625.88
2022-09-16T06:55:42.045Z,97631.00
2022-09-16T06:58:44.979Z,97625.78
2022-09-16T07:01:46.733Z,97628.34
2022-09-16T07:04:48.451Z,97631.97
2022-09-16T07:07:53.053Z,97641.78
2022-09-16T07:10:58.101Z,97640.16
2022-09-16T07:14:02.835Z,97634.34
2022-09-16T07:17:04.373Z,97625.38
2022-09-16T07:20:06.565Z,97634.25
2022-09-16T07:23:09.532Z,97642.06
2022-09-16T07:26:11.988Z,97637.66
2022-09-16T07:29:14.947Z,97637.13
2022-09-16T07:32:16.805Z,97639.69
2022-09-16T07:35:18.575Z,97644.63
2022-09-16T07:38:21.681Z,97646.53
2022-09-16T07:41:24.178Z,97643.09
2022-09-16T07:44:25.762Z,97662.28
2022-09-16T07:47:27.210Z,97659.19
2022-09-16T07:50:28.857Z,97657.22
2022-09-16T07:53:32.499Z,97656.38
2022-09-16T07:56:35.073Z,97655.00
2022-09-16T07:59:36.603Z,97656.34
2022-09-16T08:02:38.620Z,97659.75
2022-09-16T08:05:40.332Z,97657.84
2022-09-16T08:08:44.323Z,97661.63
2022-09-16T08:11:46.168Z,97667.47
2022-09-16T08:14:48.145Z,97663.72
2022-09-16T08:17:50.017Z,97669.06
2022-09-16T08:20:51.618Z,97672.31
2022-09-16T08:23:54.954Z,97666.56
2022-09-16T08:30:06.030Z,97673.34
2022-09-16T08:33:07.768Z,97671.59
2022-09-16T08:36:12.007Z,97670.56
2022-09-16T08:39:15.221Z,97667.03
2022-09-16T08:42:29.890Z,97673.88
2022-09-16T08:45:36.119Z,97676.34
2022-09-16T08:48:42.267Z,97676.69
2022-09-16T08:51:46.690Z,97674.38
2022-09-16T08:54:51.801Z,97671.97
2022-09-16T08:57:57.410Z,97673.81
2022-09-16T09:01:01.131Z,97680.88
2022-09-16T09:04:03.184Z,97673.31
2022-09-16T09:07:09.887Z,97674.91
2022-09-16T09:10:18.335Z,97678.84
2022-09-16T09:13:29.039Z,97672.69
2022-09-16T09:16:37.821Z,97665.75
2022-09-16T09:19:46.510Z,97667.06
2022-09-16T09:23:04.897Z,97667.59
2022-09-16T09:26:11.702Z,97663.25
2022-09-16T09:29:25.838Z,97658.31
2022-09-16T09:32:46.013Z,97658.84
2022-09-16T09:35:57.334Z,97658.59
2022-09-16T09:39:06.472Z,97663.00
2022-09-16T09:42:13.054Z,97665.59
2022-09-16T09:45:20.493Z,97668.59
2022-09-16T09:48:23.841Z,97673.22
2022-09-16T09:51:29.244Z,97673.28
2022-09-16T09:54:31.716Z,97659.06
2022-09-16T09:57:38.030Z,97651.69
2022-09-16T10:00:39.520Z,97645.03
2022-09-16T10:03:41.317Z,97639.69
2022-09-16T10:06:43.701Z,97627.53
2022-09-16T10:09:48.013Z,97635.56
2022-09-16T10:12:51.548Z,97636.91
2022-09-16T10:15:55.605Z,97636.56
2022-09-16T10:19:00.820Z,97637.59
2022-09-16T10:22:09.807Z,97640.75
2022-09-16T10:25:22.207Z,97633.22
2022-09-16T10:28:26.497Z,97625.84
2022-09-16T10:31:33.576Z,97628.94
2022-09-16T10:34:38.337Z,97629.69
2022-09-16T10:37:40.932Z,97629.44
2022-09-16T10:40:50.843Z,97633.78
2022-09-16T10:43:54.761Z,97625.06
2022-09-16T10:46:57.787Z,97626.91
2022-09-16T10:50:02.109Z,97632.25
2022-09-16T10:53:04.188Z,97635.22
2022-09-16T10:56:06.399Z,97619.19
2022-09-16T10:59:10.898Z,97614.72
2022-09-16T11:05:28.190Z,97602.22
2022-09-16T11:08:48.365Z,97614.91
2022-09-16T11:11:56.940Z,97611.97
2022-09-16T11:15:05.872Z,97614.03
2022-09-16T11:18:20.424Z,97609.56
2022-09-16T11:21:36.339Z,97601.47
2022-09-16T11:24:46.210Z,97596.25
2022-09-16T11:27:54.862Z,97594.47
2022-09-16T11:31:04.230Z,97583.44
2022-09-16T11:34:10.256Z,97586.59
2022-09-16T11:37:17.721Z,97588.94
2022-09-16T11:40:25.887Z,97581.22
2022-09-16T11:43:38.999Z,97580.22
2022-09-16T11:46:46.845Z,97580.47
2022-09-16T11:49:57.999Z,97581.09
2022-09-16T11:53:08.384Z,97581.72
2022-09-16T11:56:14.179Z,97582.84
2022-09-16T11:59:20.916Z,97591.97
2022-09-16T12:02:26.367Z,97587.44
2022-09-16T12:05:30.851Z,97583.06
2022-09-16T12:08:34.762Z,97576.53
2022-09-16T12:11:39.698Z,97584.06
2022-09-16T12:14:42.901Z,97567.22
2022-09-16T12:17:50.672Z,97564.41
2022-09-16T12:20:54.435Z,97555.50
2022-09-16T12:23:57.856Z,97563.81
2022-09-16T12:27:04.168Z,97568.31
2022-09-16T12:30:12.000Z,97567.94
2022-09-16T12:33:17.830Z,97570.84
2022-09-16T12:36:23.864Z,97568.63
2022-09-16T12:39:25.805Z,97564.25
2022-09-16T12:42:54.097Z,97569.13
2022-09-16T12:46:10.537Z,97566.34
2022-09-16T12:49:26.734Z,97589.53
2022-09-16T12:52:38.032Z,97598.38
2022-09-16T12:55:56.031Z,97592.81
2022-09-16T12:59:07.101Z,97603.75
2022-09-16T13:02:12.604Z,97594.84
2022-09-16T13:05:20.700Z,97608.06
2022-09-16T13:08:24.215Z,97594.00
2022-09-16T13:12:16.635Z,97596.59
2022-09-16T13:14:51.571Z,97588.13
2022-09-16T13:17:54.791Z,97589.63
2022-09-16T13:20:59.112Z,97588.69
2022-09-16T13:24:04.178Z,97594.66
2022-09-16T13:27:23.020Z,97589.44
2022-09-16T13:30:35.003Z,97593.34
2022-09-16T13:33:37.002Z,97576.16
2022-09-16T13:36:42.042Z,97577.53
2022-09-16T13:39:47.205Z,97579.50
2022-09-16T13:42:51.630Z,97582.28
2022-09-16T13:46:02.210Z,97579.47
2022-09-16T13:49:11.874Z,97568.16
2022-09-16T13:52:19.271Z,97569.50
2022-09-16T13:55:22.041Z,97585.13
2022-09-16T13:58:28.423Z,97563.53
2022-09-16T14:01:48.881Z,97555.94
2022-09-16T14:05:05.337Z,97558.31
2022-09-16T14:08:12.139Z,97557.72
2022-09-16T14:11:16.498Z,97542.78
2022-09-16T14:14:43.193Z,97537.69
2022-09-16T14:17:42.538Z,97538.16
2022-09-16T14:20:52.986Z,97542.44
2022-09-16T14:24:06.723Z,97534.53
2022-09-16T14:27:18.353Z,97535.47
2022-09-16T14:30:19.984Z,97530.88
2022-09-16T14:33:24.420Z,97525.38
2022-09-16T14:36:27.180Z,97531.06
2022-09-16T14:39:30.780Z,97530.84
2022-09-16T14:42:32.570Z,97511.44
2022-09-16T14:45:36.598Z,97520.59
2022-09-16T14:48:40.761Z,97521.09
2022-09-16T14:51:44.111Z,97521.66
2022-09-16T14:54:47.695Z,97530.34
2022-09-16T14:57:49.784Z,97520.22
2022-09-16T15:00:53.756Z,97517.53
2022-09-16T15:03:57.926Z,97511.09
2022-09-16T15:10:21.932Z,97515.81
2022-09-16T15:13:25.704Z,97507.19
2022-09-16T15:16:28.541Z,97508.41
2022-09-16T15:19:33.179Z,97522.41
2022-09-16T15:22:39.893Z,97516.31
2022-09-16T15:25:51.961Z,97539.84
2022-09-16T15:28:55.674Z,97550.03
2022-09-16T15:32:07.222Z,97544.59
2022-09-16T15:35:12.005Z,97546.63
2022-09-16T15:38:20.869Z,97557.75
2022-09-16T15:41:24.326Z,97546.44
2022-09-16T15:44:27.574Z,97553.56
2022-09-16T15:47:30.698Z,97545.56
2022-09-16T15:50:39.212Z,97546.22
2022-09-16T15:53:44.142Z,97559.28
2022-09-16T15:56:53.343Z,97553.94
2022-09-16T16:00:06.833Z,97553.75
2022-09-16T16:03:17.954Z,97554.88
2022-09-16T16:06:20.348Z,97544.94
2022-09-16T16:09:37.073Z,97531.75
2022-09-16T16:12:42.836Z,97530.91
2022-09-16T16:19:02.063Z,97520.88
2022-09-16T16:22:10.430Z,97522.81
2022-09-16T16:25:13.726Z,97515.31
2022-09-16T16:28:21.415Z,97521.19
2022-09-16T16:31:25.981Z,97523.13
2022-09-16T16:34:28.041Z,97520.44
2022-09-16T16:37:47.253Z,97511.78
2022-09-16T16:40:50.260Z,97522.50
2022-09-16T16:43:53.902Z,97523.13
2022-09-16T16:46:56.293Z,97516.38
2022-09-16T16:50:00.891Z,97513.19
2022-09-16T16:53:02.566Z,97508.91
2022-09-16T16:56:06.171Z,97510.19
2022-09-16T17:03:12.755Z,97495.66
2022-09-16T17:06:15.089Z,97502.94
2022-09-16T17:09:17.211Z,97508.50
2022-09-16T17:12:18.696Z,97512.47
2022-09-16T17:18:33.573Z,97504.25
2022-09-16T17:24:49.360Z,97513.69
2022-09-16T17:27:51.444Z,97523.50
2022-09-16T17:30:56.550Z,97524.38
2022-09-16T17:43:51.632Z,97556.81
2022-09-16T17:47:15.855Z,97558.75
2022-09-16T18:16:22.287Z,97539.81
2022-09-16T18:29:14.256Z,97560.31
2022-09-16T18:32:17.563Z,97562.03
2022-09-16T18:35:19.461Z,97565.50
2022-09-16T18:38:21.406Z,97575.28
2022-09-16T18:44:33.754Z,97570.91
2022-09-16T18:50:54.199Z,97565.91
2022-09-16T19:10:28.249Z,97575.66
2022-09-16T19:13:30.203Z,97585.19
2022-09-16T19:16:32.599Z,97577.66
2022-09-16T19:19:34.779Z,97575.97
2022-09-16T19:45:30.520Z,97563.13
2022-09-16T19:48:33.408Z,97575.81
2022-09-16T19:51:35.364Z,97574.31
2022-09-16T19:54:37.125Z,97567.53
2022-09-16T19:57:38.934Z,97571.38
2022-09-16T20:00:55.851Z,97578.41
2022-09-16T20:03:58.305Z,97572.41
2022-09-16T20:07:00.179Z,97576.88
2022-09-16T20:10:01.966Z,97579.00
2022-09-16T20:13:03.857Z,97581.00
2022-09-16T20:16:07.822Z,97583.19
2022-09-16T20:19:13.726Z,97586.19
2022-09-16T20:22:15.534Z,97586.41
2022-09-16T20:25:40.736Z,97592.88
2022-09-16T20:28:44.375Z,97593.25
2022-09-16T20:31:49.237Z,97590.78
2022-09-16T20:34:51.266Z,97587.91
2022-09-16T20:37:53.143Z,97590.78
2022-09-16T20:40:55.229Z,97599.94
2022-09-16T20:44:03.311Z,97594.22
2022-09-16T20:47:07.664Z,97590.78
2022-09-16T20:50:10.205Z,97582.84
2022-09-16T20:53:12.125Z,97590.78
2022-09-16T20:56:14.721Z,97591.16
2022-09-16T20:59:17.339Z,97584.09
2022-09-16T21:02:20.754Z,97582.19
2022-09-16T21:05:22.693Z,97590.09
2022-09-16T21:08:24.726Z,97595.72
2022-09-16T21:11:28.252Z,97584.19
2022-09-16T21:14:32.811Z,97577.41
2022-09-16T21:17:36.804Z,97577.41
2022-09-16T21:20:38.304Z,97589.97
2022-09-16T21:23:40.482Z,97594.84
2022-09-16T21:26:44.007Z,97596.72
2022-09-16T21:29:45.811Z,97591.50
2022-09-16T21:32:48.764Z,97588.63
2022-09-16T21:35:51.123Z,97593.03
2022-09-16T21:38:52.913Z,97595.00
2022-09-16T21:41:54.655Z,97599.66
2022-09-16T21:44:58.812Z,97599.47
2022-09-16T21:48:02.096Z,97595.38
2022-09-16T21:51:08.917Z,97599.66
2022-09-16T21:54:10.769Z,97595.56
2022-09-16T21:57:14.510Z,97606.31
2022-09-16T22:00:16.518Z,97601.94
2022-09-16T22:03:19.693Z,97611.38
2022-09-16T22:06:27.824Z,97603.63
2022-09-16T22:09:29.996Z,97609.91
2022-09-16T22:12:33.039Z,97607.44
2022-09-16T22:15:34.969Z,97610.69
2022-09-16T22:18:38.789Z,97610.22
2022-09-16T22:21:43.030Z,97616.59
2022-09-16T22:24:45.038Z,97618.28
2022-09-16T22:27:46.575Z,97617.69
2022-09-16T22:30:48.332Z,97620.34
2022-09-16T22:33:54.653Z,97623.19
2022-09-16T22:36:59.091Z,97621.22
2022-09-16T22:40:01.169Z,97619.41
2022-09-16T22:43:03.252Z,97617.50
2022-09-16T22:46:05.237Z,97614.16
2022-09-16T22:49:08.521Z,97619.41
2022-09-16T22:52:10.633Z,97616.47
2022-09-16T22:55:17.059Z,97628.94
2022-09-16T22:58:24.155Z,97620.97
2022-09-16T23:01:27.655Z,97623.63
2022-09-16T23:04:31.654Z,97618.53
2022-09-16T23:07:33.849Z,97628.25
2022-09-16T23:10:36.893Z,97624.56
2022-09-16T23:13:42.648Z,97613.81
2022-09-16T23:16:44.233Z,97626.09
2022-09-16T23:19:47.273Z,97624.00
2022-09-16T23:22:49.042Z,97625.56
2022-09-16T23:25:50.615Z,97621.84
2022-09-16T23:28:52.805Z,97618.31
2022-09-16T23:31:54.870Z,97621.75
2022-09-16T23:34:57.707Z,97630.59
2022-09-16T23:37:59.263Z,97624.50
2022-09-16T23:41:03.402Z,97616.22
2022-09-16T23:44:05.732Z,97624.22
2022-09-16T23:47:07.423Z,97632.16
2022-09-16T23:50:11.314Z,97628.59
2022-09-16T23:53:13.300Z,97636.25
2022-09-16T23:56:15.977Z,97634.34
2022-09-16T23:59:20.421Z,97633.28
